createdAt,value
2023-02-08T00:01:00.276Z,26.30
2023-02-08T00:03:29.175Z,25.30
2023-02-08T00:05:56.871Z,24.35
2023-02-08T00:08:24.450Z,24.23
2023-02-08T00:10:51.735Z,24.92
2023-02-08T00:13:19.292Z,24.80
2023-02-08T00:15:47.160Z,24.27
2023-02-08T00:18:14.877Z,24.67
2023-02-08T00:20:43.544Z,24.67
2023-02-08T00:23:12.086Z,22.17
2023-02-08T00:25:41.233Z,24.77
2023-02-08T00:28:13.605Z,25.25
2023-02-08T00:30:43.723Z,25.02
2023-02-08T00:33:11.982Z,26.17
2023-02-08T00:35:39.330Z,24.35
2023-02-08T00:38:06.682Z,26.48
2023-02-08T00:40:33.982Z,25.05
2023-02-08T00:43:02.786Z,23.73
2023-02-08T00:45:30.445Z,25.02
2023-02-08T00:47:57.777Z,24.73
2023-02-08T00:50:25.362Z,24.02
2023-02-08T00:52:52.736Z,24.45
2023-02-08T00:55:20.291Z,27.40
2023-02-08T00:57:47.751Z,24.75
2023-02-08T01:00:15.217Z,25.98
2023-02-08T01:02:42.781Z,24.95
2023-02-08T01:05:12.096Z,25.95
2023-02-08T01:07:40.569Z,23.73
2023-02-08T01:10:12.325Z,23.13
2023-02-08T01:12:39.786Z,24.58
2023-02-08T01:15:08.055Z,24.95
2023-02-08T01:17:36.821Z,23.80
2023-02-08T01:20:04.476Z,24.40
2023-02-08T01:22:32.007Z,25.63
2023-02-08T01:25:01.587Z,27.17
2023-02-08T01:27:30.242Z,24.52
2023-02-08T01:29:57.524Z,27.08
2023-02-08T01:32:25.275Z,27.90
2023-02-08T01:34:53.005Z,25.55
2023-02-08T01:37:20.644Z,28.52
2023-02-08T01:39:48.031Z,28.20
2023-02-08T01:42:17.241Z,27.13
2023-02-08T01:45:15.775Z,29.40
2023-02-08T01:47:45.319Z,30.35
2023-02-08T01:50:14.421Z,30.15
2023-02-08T01:52:44.487Z,29.50
2023-02-08T01:55:23.651Z,28.60
2023-02-08T01:57:54.876Z,32.08
2023-02-08T02:00:23.629Z,32.03
2023-02-08T02:02:54.563Z,31.15
2023-02-08T02:05:24.881Z,32.35
2023-02-08T02:07:54.306Z,30.85
2023-02-08T02:10:25.371Z,32.25
2023-02-08T02:12:55.533Z,29.15
2023-02-08T02:15:22.955Z,28.88
2023-02-08T02:17:50.364Z,29.85
2023-02-08T02:20:37.964Z,30.60
2023-02-08T02:23:07.146Z,29.02
2023-02-08T02:25:53.210Z,30.60
2023-02-08T02:28:38.951Z,29.77
2023-02-08T02:31:15.440Z,31.98
2023-02-08T02:34:09.640Z,30.27
2023-02-08T02:36:43.731Z,28.52
2023-02-08T02:39:13.999Z,30.77
2023-02-08T02:42:14.867Z,31.15
2023-02-08T02:45:13.179Z,29.75
2023-02-08T02:47:56.096Z,29.75
2023-02-08T02:50:53.879Z,31.55
2023-02-08T02:53:41.937Z,31.60
2023-02-08T02:56:30.204Z,32.33
2023-02-08T02:59:02.702Z,31.25
2023-02-08T03:01:30.292Z,30.23
2023-02-08T03:03:58.483Z,31.05
2023-02-08T03:06:39.602Z,28.88
2023-02-08T03:09:44.624Z,29.80
2023-02-08T03:12:34.068Z,28.77
2023-02-08T03:15:34.998Z,30.92
2023-02-08T03:18:02.246Z,25.38
2023-02-08T03:20:33.067Z,22.05
2023-02-08T03:23:15.208Z,24.08
2023-02-08T03:25:54.482Z,22.88
2023-02-08T03:28:48.131Z,25.73
2023-02-08T03:31:26.915Z,24.88
2023-02-08T03:34:13.135Z,25.38
2023-02-08T03:37:00.111Z,26.30
2023-02-08T03:39:30.096Z,24.83
2023-02-08T03:42:02.832Z,23.45
2023-02-08T03:44:37.173Z,22.60
2023-02-08T03:47:14.069Z,23.73
2023-02-08T03:52:11.331Z,23.02
2023-02-08T03:54:45.660Z,22.38
2023-02-08T03:57:18.903Z,23.05
2023-02-08T03:59:52.834Z,23.42
2023-02-08T04:02:23.666Z,23.45
2023-02-08T04:04:52.076Z,24.08
2023-02-08T04:07:19.962Z,24.80
2023-02-08T04:09:47.384Z,24.73
2023-02-08T04:12:15.191Z,24.17
2023-02-08T04:14:42.452Z,25.40
2023-02-08T04:17:09.751Z,24.10
2023-02-08T04:19:37.228Z,23.60
2023-02-08T04:22:04.450Z,23.35
2023-02-08T04:24:31.852Z,24.83
2023-02-08T04:26:59.094Z,21.50
2023-02-08T04:29:27.261Z,25.20
2023-02-08T04:31:54.626Z,25.35
2023-02-08T04:34:22.161Z,23.80
2023-02-08T04:36:49.545Z,23.30
2023-02-08T04:39:16.916Z,23.13
2023-02-08T04:41:44.216Z,22.27
2023-02-08T04:44:11.563Z,23.08
2023-02-08T04:46:38.894Z,22.73
2023-02-08T04:49:06.249Z,24.45
2023-02-08T04:51:33.530Z,21.80
2023-02-08T04:54:01.010Z,22.90
2023-02-08T04:56:28.276Z,23.05
2023-02-08T04:58:55.524Z,21.92
2023-02-08T05:01:22.786Z,21.00
2023-02-08T05:03:50.186Z,23.33
2023-02-08T05:06:17.485Z,22.13
2023-02-08T05:08:44.753Z,22.58
2023-02-08T05:11:12.091Z,21.95
2023-02-08T05:13:39.595Z,23.83
2023-02-08T05:16:07.119Z,22.55
2023-02-08T05:18:34.458Z,25.98
2023-02-08T05:21:01.829Z,23.65
2023-02-08T05:23:29.321Z,24.92
2023-02-08T05:25:56.597Z,24.65
2023-02-08T05:28:23.931Z,23.70
2023-02-08T05:30:52.090Z,21.88
2023-02-08T05:33:19.465Z,22.60
2023-02-08T05:35:46.789Z,24.77
2023-02-08T05:38:14.231Z,24.95
2023-02-08T05:40:41.784Z,20.38
2023-02-08T05:43:09.188Z,23.38
2023-02-08T05:45:36.521Z,24.10
2023-02-08T05:48:03.914Z,21.95
2023-02-08T05:50:32.150Z,21.15
2023-02-08T05:52:59.461Z,22.25
2023-02-08T05:55:28.287Z,23.02
2023-02-08T05:57:55.641Z,22.00
2023-02-08T06:00:23.015Z,21.05
2023-02-08T06:02:50.424Z,24.90
2023-02-08T06:05:17.801Z,21.83
2023-02-08T06:07:45.216Z,20.70
2023-02-08T06:10:12.513Z,20.55
2023-02-08T06:12:39.931Z,21.38
2023-02-08T06:15:07.495Z,22.38
2023-02-08T06:17:34.861Z,21.85
2023-02-08T06:20:02.210Z,21.38
2023-02-08T06:22:29.663Z,24.25
2023-02-08T06:24:57.103Z,23.20
2023-02-08T06:27:24.396Z,23.02
2023-02-08T06:29:51.852Z,21.10
2023-02-08T06:32:19.329Z,24.35
2023-02-08T06:34:48.239Z,24.70
2023-02-08T06:37:15.603Z,23.75
2023-02-08T06:39:43.017Z,20.38
2023-02-08T06:42:10.953Z,21.17
2023-02-08T06:44:43.782Z,24.15
2023-02-08T06:47:18.672Z,22.63
2023-02-08T06:49:45.977Z,23.25
2023-02-08T06:52:13.288Z,23.92
2023-02-08T06:54:41.141Z,23.73
2023-02-08T06:57:08.431Z,23.70
2023-02-08T06:59:35.747Z,23.58
2023-02-08T07:02:03.097Z,24.60
2023-02-08T07:04:30.849Z,25.00
2023-02-08T07:06:58.237Z,24.92
2023-02-08T07:09:25.601Z,25.90
2023-02-08T07:11:53.018Z,24.92
2023-02-08T07:14:20.294Z,25.50
2023-02-08T07:16:47.693Z,24.48
2023-02-08T07:19:15.053Z,21.77
2023-02-08T07:21:42.392Z,23.25
2023-02-08T07:24:09.712Z,23.50
2023-02-08T07:26:37.009Z,23.50
2023-02-08T07:29:04.569Z,25.20
2023-02-08T07:31:31.961Z,24.27
2023-02-08T07:33:59.549Z,24.33
2023-02-08T07:36:26.852Z,24.50
2023-02-08T07:38:54.306Z,24.40
2023-02-08T07:41:21.721Z,25.83
2023-02-08T07:43:48.986Z,23.70
2023-02-08T07:46:19.104Z,24.48
2023-02-08T07:48:46.821Z,24.42
2023-02-08T07:51:14.096Z,25.90
2023-02-08T07:53:41.384Z,25.02
2023-02-08T07:56:10.335Z,27.20
2023-02-08T07:58:38.242Z,28.10
2023-02-08T08:01:21.007Z,25.70
2023-02-08T08:03:51.060Z,22.42
2023-02-08T08:06:22.841Z,24.15
2023-02-08T08:08:50.786Z,24.40
2023-02-08T08:11:19.585Z,24.92
2023-02-08T08:13:47.229Z,22.90
2023-02-08T08:16:14.657Z,23.42
2023-02-08T08:18:42.304Z,22.95
2023-02-08T08:21:10.082Z,23.38
2023-02-08T08:23:37.296Z,24.35
2023-02-08T08:26:13.996Z,24.35
2023-02-08T08:28:42.143Z,24.20
2023-02-08T08:31:11.781Z,24.70
2023-02-08T08:33:39.217Z,24.77
2023-02-08T08:36:07.533Z,23.60
2023-02-08T08:38:35.375Z,24.85
2023-02-08T08:41:17.991Z,26.00
2023-02-08T08:43:45.981Z,26.75
2023-02-08T08:46:13.721Z,24.55
2023-02-08T08:48:41.135Z,23.13
2023-02-08T08:51:08.566Z,25.10
2023-02-08T08:53:37.124Z,25.23
2023-02-08T08:56:05.187Z,27.50
2023-02-08T08:58:33.028Z,26.25
2023-02-08T09:01:00.779Z,26.10
2023-02-08T09:03:29.292Z,24.40
2023-02-08T09:05:57.293Z,27.25
2023-02-08T09:08:24.605Z,26.67
2023-02-08T09:10:52.067Z,26.25
2023-02-08T09:13:21.201Z,29.40
2023-02-08T09:15:49.134Z,31.55
2023-02-08T09:18:16.846Z,30.50
2023-02-08T09:20:45.073Z,32.80
2023-02-08T09:23:14.456Z,30.88
2023-02-08T09:25:41.973Z,30.80
2023-02-08T09:28:09.357Z,30.58
2023-02-08T09:30:36.631Z,31.05
2023-02-08T09:33:04.120Z,33.20
2023-02-08T09:35:31.543Z,32.67
2023-02-08T09:38:02.335Z,28.65
2023-02-08T09:40:41.814Z,27.60
2023-02-08T09:43:20.131Z,26.95
2023-02-08T09:46:05.494Z,26.20
2023-02-08T09:48:36.509Z,25.58
2023-02-08T09:51:22.545Z,27.48
2023-02-08T09:53:57.120Z,28.08
2023-02-08T09:56:29.809Z,24.98
2023-02-08T09:58:59.133Z,25.98
2023-02-08T10:01:33.625Z,25.00
2023-02-08T10:04:30.475Z,25.73
2023-02-08T10:06:58.283Z,25.25
2023-02-08T10:09:27.314Z,25.20
2023-02-08T10:12:17.583Z,24.88
2023-02-08T10:14:54.390Z,27.17
2023-02-08T10:17:30.487Z,26.95
2023-02-08T10:20:24.282Z,29.90
2023-02-08T10:23:11.855Z,29.60
2023-02-08T10:26:06.035Z,30.45
2023-02-08T10:28:52.651Z,33.80
2023-02-08T10:31:50.296Z,29.45
2023-02-08T10:34:44.996Z,29.80
2023-02-08T10:37:19.078Z,30.48
2023-02-08T10:39:47.908Z,28.98
2023-02-08T10:42:22.367Z,31.83
2023-02-08T10:45:24.863Z,31.35
2023-02-08T10:48:11.470Z,31.35
2023-02-08T10:50:47.386Z,30.13
2023-02-08T10:53:16.861Z,31.15
2023-02-08T10:55:46.746Z,29.77
2023-02-08T10:58:18.145Z,29.17
2023-02-08T11:00:46.915Z,30.80
2023-02-08T11:03:34.124Z,29.85
2023-02-08T11:06:03.160Z,31.23
2023-02-08T11:08:30.547Z,30.40
2023-02-08T11:11:00.300Z,28.63
2023-02-08T11:13:43.153Z,30.85
2023-02-08T11:16:22.340Z,30.58
2023-02-08T11:18:56.848Z,32.28
2023-02-08T11:21:33.627Z,31.05
2023-02-08T11:24:21.166Z,30.02
2023-02-08T11:29:19.972Z,30.05
2023-02-08T11:32:02.460Z,29.48
2023-02-08T11:34:32.608Z,29.08
2023-02-08T11:37:04.252Z,30.23
2023-02-08T11:39:43.068Z,29.85
2023-02-08T11:42:23.552Z,29.23
2023-02-08T11:44:51.719Z,27.48
2023-02-08T11:47:29.605Z,27.08
2023-02-08T11:50:06.112Z,27.50
2023-02-08T11:52:37.086Z,26.98
2023-02-08T11:55:19.857Z,26.45
2023-02-08T11:58:09.559Z,26.90
2023-02-08T12:01:17.886Z,27.98
2023-02-08T12:03:48.240Z,28.23
2023-02-08T12:06:43.683Z,25.02
2023-02-08T12:09:55.236Z,26.55
2023-02-08T12:12:53.083Z,25.92
2023-02-08T12:18:15.940Z,24.52
2023-02-08T12:20:47.940Z,24.63
2023-02-08T12:23:34.194Z,26.25
2023-02-08T12:26:25.745Z,27.10
2023-02-08T12:29:15.087Z,25.73
2023-02-08T12:31:49.887Z,26.38
2023-02-08T12:34:35.948Z,21.30
2023-02-08T12:37:42.138Z,19.92
2023-02-08T12:40:31.094Z,15.80
2023-02-08T12:43:27.768Z,16.20
2023-02-08T12:46:42.946Z,13.88
2023-02-08T12:49:44.036Z,13.73
2023-02-08T12:52:14.468Z,14.57
2023-02-08T12:55:03.153Z,16.10
2023-02-08T12:57:32.609Z,15.13
2023-02-08T13:00:07.398Z,15.70
2023-02-08T13:02:57.348Z,16.25
2023-02-08T13:05:33.916Z,15.15
2023-02-08T13:08:15.850Z,15.02
2023-02-08T13:10:47.184Z,13.07
2023-02-08T13:13:26.809Z,11.10
2023-02-08T13:16:00.632Z,15.68
2023-02-08T13:18:35.754Z,15.52
2023-02-08T13:21:08.379Z,18.00
2023-02-08T13:23:51.785Z,18.30
2023-02-08T13:26:27.971Z,17.02
2023-02-08T13:28:58.388Z,18.25
2023-02-08T13:31:39.394Z,18.55
2023-02-08T13:34:18.438Z,18.65
2023-02-08T13:37:00.581Z,16.80
2023-02-08T13:39:41.616Z,15.70
2023-02-08T13:42:39.711Z,15.88
2023-02-08T13:45:10.035Z,14.23
2023-02-08T13:47:45.784Z,15.30
2023-02-08T13:50:37.621Z,14.50
2023-02-08T13:53:06.490Z,13.85
2023-02-08T13:55:54.476Z,14.82
2023-02-08T13:58:22.080Z,13.68
2023-02-08T14:00:56.619Z,15.02
2023-02-08T14:03:27.365Z,16.30
2023-02-08T14:06:25.655Z,16.95
2023-02-08T14:09:19.322Z,18.05
2023-02-08T14:11:52.148Z,19.55
2023-02-08T14:14:26.812Z,18.02
2023-02-08T14:17:20.592Z,18.55
2023-02-08T14:20:06.178Z,16.45
2023-02-08T14:22:41.765Z,20.85
2023-02-08T14:25:22.551Z,19.77
2023-02-08T14:27:53.844Z,21.52
2023-02-08T14:30:31.854Z,20.52
2023-02-08T14:33:04.916Z,21.30
2023-02-08T14:35:34.284Z,19.63
2023-02-08T14:38:19.053Z,18.63
2023-02-08T14:40:59.579Z,19.67
2023-02-08T14:43:44.167Z,18.17
2023-02-08T14:46:40.494Z,18.45
2023-02-08T14:49:13.901Z,17.42
2023-02-08T14:51:53.996Z,18.95
2023-02-08T14:54:37.081Z,18.23
2023-02-08T14:57:13.864Z,15.43
2023-02-08T14:59:45.748Z,16.67
2023-02-08T15:02:24.409Z,17.10
2023-02-08T15:04:52.454Z,17.70
2023-02-08T15:07:53.855Z,19.13
2023-02-08T15:10:23.634Z,17.48
2023-02-08T15:12:54.083Z,17.58
2023-02-08T15:15:32.721Z,12.60
2023-02-08T15:18:02.050Z,12.60
2023-02-08T15:20:31.916Z,11.68
2023-02-08T15:22:59.320Z,12.27
2023-02-08T15:25:30.199Z,10.95
2023-02-08T15:28:03.558Z,11.00
2023-02-08T15:30:38.914Z,10.70
2023-02-08T15:33:18.014Z,9.60
2023-02-08T15:35:54.238Z,12.10
2023-02-08T15:38:23.338Z,10.90
2023-02-08T15:41:09.256Z,11.95
2023-02-08T15:43:38.980Z,11.68
2023-02-08T15:46:17.811Z,12.50
2023-02-08T15:48:46.880Z,13.00
2023-02-08T15:51:16.370Z,13.80
2023-02-08T15:53:46.392Z,13.32
2023-02-08T15:56:47.315Z,14.32
2023-02-08T15:59:22.484Z,14.25
2023-02-08T16:01:51.374Z,14.43
2023-02-08T16:04:19.014Z,13.32
2023-02-08T16:06:53.319Z,15.52
2023-02-08T16:12:40.271Z,16.02
2023-02-08T16:15:41.950Z,16.58
2023-02-08T16:18:34.183Z,15.65
2023-02-08T16:21:13.860Z,15.95
2023-02-08T16:24:00.387Z,14.60
2023-02-08T16:26:43.910Z,14.43
2023-02-08T16:29:37.735Z,17.05
2023-02-08T16:32:20.747Z,17.23
2023-02-08T16:34:48.561Z,17.75
2023-02-08T16:37:33.213Z,16.95
2023-02-08T16:40:22.400Z,16.52
2023-02-08T16:42:49.988Z,16.88
2023-02-08T16:45:19.968Z,17.33
2023-02-08T16:47:56.883Z,17.63
2023-02-08T16:50:28.150Z,19.33
2023-02-08T16:53:00.792Z,17.23
2023-02-08T16:55:31.553Z,16.90
2023-02-08T16:57:59.718Z,17.65
2023-02-08T17:00:31.355Z,19.08
2023-02-08T17:02:59.548Z,18.67
2023-02-08T17:05:30.197Z,20.02
2023-02-08T17:07:58.810Z,18.58
2023-02-08T17:10:31.522Z,20.20
2023-02-08T17:13:17.447Z,19.38
2023-02-08T17:15:48.765Z,18.88
2023-02-08T17:18:16.338Z,19.88
2023-02-08T17:20:44.399Z,18.13
2023-02-08T17:23:12.862Z,19.63
2023-02-08T17:25:42.093Z,20.20
2023-02-08T17:28:17.139Z,19.27
2023-02-08T17:30:44.963Z,17.77
2023-02-08T17:33:18.309Z,19.98
2023-02-08T17:35:48.588Z,20.02
2023-02-08T17:38:16.268Z,17.35
2023-02-08T17:40:44.484Z,19.42
2023-02-08T17:43:12.965Z,17.48
2023-02-08T17:45:42.410Z,18.48
2023-02-08T17:48:10.214Z,17.05
2023-02-08T17:50:37.525Z,17.63
2023-02-08T17:53:04.778Z,17.85
2023-02-08T17:55:32.574Z,17.83
2023-02-08T17:57:59.720Z,17.27
2023-02-08T18:00:27.066Z,18.80
2023-02-08T18:02:55.738Z,18.85
2023-02-08T18:05:26.502Z,18.42
2023-02-08T18:07:55.939Z,18.33
2023-02-08T18:10:24.167Z,19.35
2023-02-08T18:12:51.634Z,18.75
2023-02-08T18:15:21.334Z,19.27
2023-02-08T18:17:50.385Z,19.23
2023-02-08T18:20:18.301Z,18.98
2023-02-08T18:22:46.189Z,18.55
2023-02-08T18:25:14.364Z,18.65
2023-02-08T18:27:41.885Z,20.98
2023-02-08T18:30:10.526Z,19.10
2023-02-08T18:32:38.275Z,19.30
2023-02-08T18:35:07.385Z,19.38
2023-02-08T18:37:36.214Z,18.70
2023-02-08T18:40:05.996Z,18.50
2023-02-08T18:42:35.868Z,18.35
2023-02-08T18:45:05.111Z,19.17
2023-02-08T18:47:32.758Z,17.27
2023-02-08T18:50:00.043Z,17.13
2023-02-08T18:52:28.489Z,17.27
2023-02-08T18:54:56.091Z,18.17
2023-02-08T18:57:23.359Z,17.05
2023-02-08T18:59:50.784Z,18.25
2023-02-08T19:02:21.196Z,17.08
2023-02-08T19:04:49.166Z,18.98
2023-02-08T19:07:16.651Z,20.40
2023-02-08T19:09:44.077Z,18.85
2023-02-08T19:12:15.429Z,18.05
2023-02-08T19:14:43.942Z,18.33
2023-02-08T19:17:13.676Z,17.27
2023-02-08T19:19:42.309Z,18.52
2023-02-08T19:22:09.768Z,18.33
2023-02-08T19:24:37.073Z,19.50
2023-02-08T19:27:04.967Z,18.48
2023-02-08T19:29:34.557Z,17.45
2023-02-08T19:32:01.766Z,18.42
2023-02-08T19:34:29.350Z,18.85
2023-02-08T19:36:56.741Z,19.73
2023-02-08T19:39:26.551Z,19.10
2023-02-08T19:41:54.940Z,19.23
2023-02-08T19:44:22.821Z,18.80
2023-02-08T19:46:52.845Z,20.42
2023-02-08T19:49:21.043Z,17.30
2023-02-08T19:51:48.560Z,19.35
2023-02-08T19:54:18.148Z,19.08
2023-02-08T19:56:46.489Z,19.45
2023-02-08T19:59:25.968Z,19.00
2023-02-08T20:01:54.342Z,19.75
2023-02-08T20:04:22.631Z,20.17
2023-02-08T20:06:54.982Z,20.02
2023-02-08T20:09:22.687Z,21.13
2023-02-08T20:11:57.225Z,19.98
2023-02-08T20:14:28.784Z,19.90
2023-02-08T20:16:56.702Z,20.52
2023-02-08T20:19:24.612Z,19.42
2023-02-08T20:21:52.505Z,19.33
2023-02-08T20:24:20.325Z,17.65
2023-02-08T20:26:48.664Z,19.58
2023-02-08T20:29:17.238Z,18.27
2023-02-08T20:31:48.639Z,19.80
2023-02-08T20:34:18.693Z,21.27
2023-02-08T20:37:04.548Z,21.48
2023-02-08T20:39:34.199Z,21.30
2023-02-08T20:42:01.575Z,19.90
2023-02-08T20:44:29.019Z,21.88
2023-02-08T20:46:56.332Z,20.70
2023-02-08T20:49:25.589Z,22.05
2023-02-08T20:51:54.179Z,22.67
2023-02-08T20:54:24.470Z,20.98
2023-02-08T20:56:53.078Z,21.70
2023-02-08T20:59:21.105Z,19.88
2023-02-08T21:01:48.957Z,21.83
2023-02-08T21:04:17.945Z,24.05
2023-02-08T21:06:46.253Z,23.30
2023-02-08T21:09:16.004Z,24.83
2023-02-08T21:11:44.611Z,24.88
2023-02-08T21:14:19.355Z,24.05
2023-02-08T21:16:49.679Z,28.23
2023-02-08T21:19:17.509Z,22.73
2023-02-08T21:21:44.887Z,22.55
2023-02-08T21:24:12.270Z,20.75
2023-02-08T21:26:39.599Z,23.45
2023-02-08T21:29:07.339Z,24.23
2023-02-08T21:31:36.505Z,23.17
2023-02-08T21:34:04.899Z,23.88
2023-02-08T21:36:33.249Z,24.27
2023-02-08T21:39:00.752Z,25.50
2023-02-08T21:41:30.400Z,24.08
2023-02-08T21:44:00.243Z,23.83
2023-02-08T21:46:28.437Z,22.77
2023-02-08T21:49:15.337Z,21.05
2023-02-08T21:52:02.660Z,22.40
2023-02-08T21:54:42.470Z,22.67
2023-02-08T21:57:09.703Z,24.48
2023-02-08T21:59:37.775Z,23.77
2023-02-08T22:02:27.761Z,25.17
2023-02-08T22:05:16.223Z,24.58
2023-02-08T22:07:49.674Z,26.75
2023-02-08T22:10:19.728Z,23.73
2023-02-08T22:12:47.646Z,24.50
2023-02-08T22:15:17.840Z,23.83
2023-02-08T22:17:45.613Z,23.95
2023-02-08T22:20:14.892Z,25.08
2023-02-08T22:22:42.329Z,22.70
2023-02-08T22:25:09.713Z,23.17
2023-02-08T22:27:39.100Z,23.10
2023-02-08T22:30:08.231Z,22.38
2023-02-08T22:32:38.869Z,25.05
2023-02-08T22:35:07.625Z,22.23
2023-02-08T22:37:35.613Z,20.33
2023-02-08T22:40:04.065Z,21.40
2023-02-08T22:42:31.744Z,23.95
2023-02-08T22:44:59.497Z,22.52
2023-02-08T22:47:26.874Z,21.83
2023-02-08T22:49:57.509Z,22.60
2023-02-08T22:52:25.926Z,21.90
2023-02-08T22:54:53.851Z,20.90
2023-02-08T22:57:21.150Z,25.65
2023-02-08T22:59:48.479Z,21.65
2023-02-08T23:02:17.865Z,23.40
2023-02-08T23:04:45.209Z,20.98
2023-02-08T23:07:12.490Z,23.50
2023-02-08T23:09:39.781Z,24.27
2023-02-08T23:12:07.272Z,24.35
2023-02-08T23:14:35.535Z,24.77
2023-02-08T23:17:02.818Z,27.75
2023-02-08T23:19:30.227Z,28.38
2023-02-08T23:22:00.635Z,23.23
2023-02-08T23:24:28.046Z,19.88
2023-02-08T23:26:55.378Z,24.52
2023-02-08T23:29:22.868Z,24.77
2023-02-08T23:31:50.283Z,25.73
2023-02-08T23:34:18.090Z,24.88
2023-02-08T23:36:45.546Z,22.45
2023-02-08T23:39:13.294Z,24.05
2023-02-08T23:41:40.516Z,24.05
2023-02-08T23:44:07.806Z,24.58
2023-02-08T23:46:35.134Z,24.85
2023-02-08T23:49:02.425Z,23.90
2023-02-08T23:51:29.929Z,25.55
2023-02-08T23:53:57.232Z,24.83
2023-02-08T23:56:26.897Z,27.02
2023-02-08T23:58:57.302Z,25.33
